sensor_id;sensor_type;location;lat;lon;timestamp;pressure;altitude;pressure_sealevel;temperature
28803;BMP280;15949;55.656;37.422;2023-07-24T00:03:36;98822.72;;;12.61
28803;BMP280;15949;55.656;37.422;2023-07-24T00:08:41;98826.53;;;12.67
28803;BMP280;15949;55.656;37.422;2023-07-24T00:13:47;98822.78;;;12.68
28803;BMP280;15949;55.656;37.422;2023-07-24T00:18:52;98826.47;;;12.60
28803;BMP280;15949;55.656;37.422;2023-07-24T00:23:58;98824.56;;;12.57
28803;BMP280;15949;55.656;37.422;2023-07-24T00:29:04;98818.47;;;12.46
28803;BMP280;15949;55.656;37.422;2023-07-24T00:34:09;98812.88;;;12.47
28803;BMP280;15949;55.656;37.422;2023-07-24T00:39:15;98818.13;;;12.51
28803;BMP280;15949;55.656;37.422;2023-07-24T00:44:20;98816.53;;;12.39
28803;BMP280;15949;55.656;37.422;2023-07-24T00:49:26;98811.38;;;12.50
28803;BMP280;15949;55.656;37.422;2023-07-24T00:54:32;98810.63;;;12.46
28803;BMP280;15949;55.656;37.422;2023-07-24T00:59:39;98806.91;;;12.47
28803;BMP280;15949;55.656;37.422;2023-07-24T01:04:44;98807.56;;;12.40
28803;BMP280;15949;55.656;37.422;2023-07-24T01:09:50;98799.66;;;12.33
28803;BMP280;15949;55.656;37.422;2023-07-24T01:15:25;98791.88;;;12.37
28803;BMP280;15949;55.656;37.422;2023-07-24T01:20:36;98788.84;;;12.31
28803;BMP280;15949;55.656;37.422;2023-07-24T01:25:59;98790.63;;;12.27
28803;BMP280;15949;55.656;37.422;2023-07-24T01:31:04;98793.50;;;12.15
28803;BMP280;15949;55.656;37.422;2023-07-24T01:36:10;98802.03;;;12.08
28803;BMP280;15949;55.656;37.422;2023-07-24T01:41:17;98798.56;;;12.04
28803;BMP280;15949;55.656;37.422;2023-07-24T01:46:22;98795.94;;;12.01
28803;BMP280;15949;55.656;37.422;2023-07-24T01:51:28;98804.84;;;11.96
28803;BMP280;15949;55.656;37.422;2023-07-24T01:56:35;98799.63;;;11.96
28803;BMP280;15949;55.656;37.422;2023-07-24T02:01:41;98798.84;;;11.92
28803;BMP280;15949;55.656;37.422;2023-07-24T02:06:47;98808.53;;;11.95
28803;BMP280;15949;55.656;37.422;2023-07-24T02:11:53;98816.81;;;11.97
28803;BMP280;15949;55.656;37.422;2023-07-24T02:16:58;98812.69;;;12.00
28803;BMP280;15949;55.656;37.422;2023-07-24T02:22:04;98812.06;;;12.10
28803;BMP280;15949;55.656;37.422;2023-07-24T02:27:13;98807.28;;;12.15
28803;BMP280;15949;55.656;37.422;2023-07-24T02:32:21;98808.25;;;12.34
28803;BMP280;15949;55.656;37.422;2023-07-24T02:37:27;98809.19;;;12.48
28803;BMP280;15949;55.656;37.422;2023-07-24T02:42:33;98808.84;;;12.53
28803;BMP280;15949;55.656;37.422;2023-07-24T02:47:38;98801.03;;;12.57
28803;BMP280;15949;55.656;37.422;2023-07-24T02:52:44;98792.16;;;12.68
28803;BMP280;15949;55.656;37.422;2023-07-24T02:57:50;98789.97;;;12.74
28803;BMP280;15949;55.656;37.422;2023-07-24T03:02:56;98793.03;;;12.83
28803;BMP280;15949;55.656;37.422;2023-07-24T03:08:01;98796.88;;;12.96
28803;BMP280;15949;55.656;37.422;2023-07-24T03:13:07;98803.31;;;13.02
28803;BMP280;15949;55.656;37.422;2023-07-24T03:18:13;98801.88;;;13.12
28803;BMP280;15949;55.656;37.422;2023-07-24T03:23:18;98814.31;;;13.25
28803;BMP280;15949;55.656;37.422;2023-07-24T03:28:25;98812.94;;;13.45
28803;BMP280;15949;55.656;37.422;2023-07-24T03:33:32;98807.78;;;13.63
28803;BMP280;15949;55.656;37.422;2023-07-24T03:38:37;98804.84;;;13.68
28803;BMP280;15949;55.656;37.422;2023-07-24T03:43:43;98802.59;;;13.74
28803;BMP280;15949;55.656;37.422;2023-07-24T03:48:48;98802.56;;;13.67
28803;BMP280;15949;55.656;37.422;2023-07-24T03:53:55;98813.41;;;13.65
28803;BMP280;15949;55.656;37.422;2023-07-24T03:59:01;98808.53;;;13.64
28803;BMP280;15949;55.656;37.422;2023-07-24T04:04:07;98819.75;;;13.64
28803;BMP280;15949;55.656;37.422;2023-07-24T04:09:12;98823.91;;;13.69
28803;BMP280;15949;55.656;37.422;2023-07-24T04:14:20;98816.44;;;13.74
28803;BMP280;15949;55.656;37.422;2023-07-24T04:19:25;98808.63;;;13.85
28803;BMP280;15949;55.656;37.422;2023-07-24T04:24:31;98806.47;;;14.01
28803;BMP280;15949;55.656;37.422;2023-07-24T04:29:36;98794.56;;;14.28
28803;BMP280;15949;55.656;37.422;2023-07-24T04:34:42;98791.59;;;14.61
28803;BMP280;15949;55.656;37.422;2023-07-24T04:39:47;98802.09;;;14.93
28803;BMP280;15949;55.656;37.422;2023-07-24T04:44:53;98796.81;;;15.04
28803;BMP280;15949;55.656;37.422;2023-07-24T04:49:59;98797.94;;;15.17
28803;BMP280;15949;55.656;37.422;2023-07-24T04:55:05;98797.88;;;15.27
28803;BMP280;15949;55.656;37.422;2023-07-24T05:00:11;98798.19;;;15.61
28803;BMP280;15949;55.656;37.422;2023-07-24T05:05:16;98788.28;;;15.93
28803;BMP280;15949;55.656;37.422;2023-07-24T05:10:22;98790.13;;;16.03
28803;BMP280;15949;55.656;37.422;2023-07-24T05:15:27;98787.38;;;16.21
28803;BMP280;15949;55.656;37.422;2023-07-24T05:20:33;98793.97;;;16.43
28803;BMP280;15949;55.656;37.422;2023-07-24T05:25:39;98793.06;;;16.64
28803;BMP280;15949;55.656;37.422;2023-07-24T05:30:44;98788.75;;;16.84
28803;BMP280;15949;55.656;37.422;2023-07-24T05:35:50;98791.31;;;16.91
28803;BMP280;15949;55.656;37.422;2023-07-24T05:40:56;98795.38;;;16.99
28803;BMP280;15949;55.656;37.422;2023-07-24T05:46:02;98788.91;;;17.07
28803;BMP280;15949;55.656;37.422;2023-07-24T05:51:07;98784.75;;;17.10
28803;BMP280;15949;55.656;37.422;2023-07-24T05:56:13;98790.28;;;17.19
28803;BMP280;15949;55.656;37.422;2023-07-24T06:01:18;98782.66;;;17.28
28803;BMP280;15949;55.656;37.422;2023-07-24T06:06:24;98784.44;;;17.38
28803;BMP280;15949;55.656;37.422;2023-07-24T06:11:30;98793.00;;;17.45
28803;BMP280;15949;55.656;37.422;2023-07-24T06:16:35;98797.63;;;17.34
28803;BMP280;15949;55.656;37.422;2023-07-24T06:21:41;98794.00;;;17.21
28803;BMP280;15949;55.656;37.422;2023-07-24T06:26:46;98803.84;;;17.17
28803;BMP280;15949;55.656;37.422;2023-07-24T06:31:52;98812.13;;;17.19
28803;BMP280;15949;55.656;37.422;2023-07-24T06:36:57;98813.31;;;17.11
28803;BMP280;15949;55.656;37.422;2023-07-24T06:42:03;98806.28;;;17.01
28803;BMP280;15949;55.656;37.422;2023-07-24T06:47:09;98807.41;;;17.00
28803;BMP280;15949;55.656;37.422;2023-07-24T06:52:14;98812.19;;;17.12
28803;BMP280;15949;55.656;37.422;2023-07-24T06:57:20;98804.50;;;17.28
28803;BMP280;15949;55.656;37.422;2023-07-24T07:02:26;98792.78;;;17.29
28803;BMP280;15949;55.656;37.422;2023-07-24T07:07:33;98787.59;;;17.22
28803;BMP280;15949;55.656;37.422;2023-07-24T07:12:39;98802.34;;;17.20
28803;BMP280;15949;55.656;37.422;2023-07-24T07:17:44;98791.38;;;17.21
28803;BMP280;15949;55.656;37.422;2023-07-24T07:22:50;98786.97;;;17.11
28803;BMP280;15949;55.656;37.422;2023-07-24T07:27:55;98798.91;;;16.85
28803;BMP280;15949;55.656;37.422;2023-07-24T07:33:01;98795.31;;;16.65
28803;BMP280;15949;55.656;37.422;2023-07-24T07:38:06;98786.66;;;16.65
28803;BMP280;15949;55.656;37.422;2023-07-24T07:43:12;98787.78;;;16.67
28803;BMP280;15949;55.656;37.422;2023-07-24T07:48:18;98784.00;;;16.68
28803;BMP280;15949;55.656;37.422;2023-07-24T07:53:23;98781.00;;;16.66
28803;BMP280;15949;55.656;37.422;2023-07-24T07:58:29;98777.00;;;16.51
28803;BMP280;15949;55.656;37.422;2023-07-24T08:03:35;98769.50;;;16.50
28803;BMP280;15949;55.656;37.422;2023-07-24T08:08:40;98780.38;;;16.52
28803;BMP280;15949;55.656;37.422;2023-07-24T08:13:46;98777.41;;;16.50
28803;BMP280;15949;55.656;37.422;2023-07-24T08:18:51;98776.69;;;16.46
28803;BMP280;15949;55.656;37.422;2023-07-24T08:23:57;98777.00;;;16.51
28803;BMP280;15949;55.656;37.422;2023-07-24T08:29:03;98766.81;;;16.57
28803;BMP280;15949;55.656;37.422;2023-07-24T08:34:09;98766.06;;;16.56
28803;BMP280;15949;55.656;37.422;2023-07-24T08:39:14;98759.88;;;16.77
28803;BMP280;15949;55.656;37.422;2023-07-24T08:44:20;98768.00;;;16.93
28803;BMP280;15949;55.656;37.422;2023-07-24T08:49:26;98764.97;;;16.91
28803;BMP280;15949;55.656;37.422;2023-07-24T08:54:36;98763.63;;;16.76
28803;BMP280;15949;55.656;37.422;2023-07-24T08:59:44;98765.19;;;17.11
28803;BMP280;15949;55.656;37.422;2023-07-24T09:04:49;98754.59;;;17.44
28803;BMP280;15949;55.656;37.422;2023-07-24T09:09:55;98749.66;;;17.50
28803;BMP280;15949;55.656;37.422;2023-07-24T09:15:04;98747.06;;;17.46
28803;BMP280;15949;55.656;37.422;2023-07-24T09:20:10;98737.66;;;17.15
28803;BMP280;15949;55.656;37.422;2023-07-24T09:25:16;98747.00;;;16.86
28803;BMP280;15949;55.656;37.422;2023-07-24T09:30:22;98732.91;;;16.66
28803;BMP280;15949;55.656;37.422;2023-07-24T09:35:29;98729.22;;;16.60
28803;BMP280;15949;55.656;37.422;2023-07-24T09:40:53;98715.31;;;16.56
28803;BMP280;15949;55.656;37.422;2023-07-24T09:45:59;98715.72;;;16.54
28803;BMP280;15949;55.656;37.422;2023-07-24T09:51:04;98722.63;;;16.38
28803;BMP280;15949;55.656;37.422;2023-07-24T09:56:10;98708.63;;;16.03
28803;BMP280;15949;55.656;37.422;2023-07-24T10:01:16;98699.31;;;15.88
28803;BMP280;15949;55.656;37.422;2023-07-24T10:06:22;98678.59;;;15.97
28803;BMP280;15949;55.656;37.422;2023-07-24T10:11:28;98668.84;;;16.01
28803;BMP280;15949;55.656;37.422;2023-07-24T10:16:34;98670.09;;;15.79
28803;BMP280;15949;55.656;37.422;2023-07-24T10:21:45;98661.13;;;15.73
28803;BMP280;15949;55.656;37.422;2023-07-24T10:26:55;98661.16;;;15.70
28803;BMP280;15949;55.656;37.422;2023-07-24T10:32:01;98673.22;;;15.60
28803;BMP280;15949;55.656;37.422;2023-07-24T10:37:08;98630.16;;;15.43
28803;BMP280;15949;55.656;37.422;2023-07-24T10:42:22;98650.44;;;15.43
28803;BMP280;15949;55.656;37.422;2023-07-24T10:47:28;98653.47;;;15.34
28803;BMP280;15949;55.656;37.422;2023-07-24T10:52:34;98644.91;;;15.27
28803;BMP280;15949;55.656;37.422;2023-07-24T10:57:39;98645.69;;;15.17
28803;BMP280;15949;55.656;37.422;2023-07-24T11:02:45;98627.38;;;15.03
28803;BMP280;15949;55.656;37.422;2023-07-24T11:07:50;98635.19;;;15.17
28803;BMP280;15949;55.656;37.422;2023-07-24T11:12:56;98627.91;;;15.42
28803;BMP280;15949;55.656;37.422;2023-07-24T11:18:04;98632.63;;;15.68
28803;BMP280;15949;55.656;37.422;2023-07-24T11:23:10;98626.59;;;15.75
28803;BMP280;15949;55.656;37.422;2023-07-24T11:28:16;98627.28;;;15.79
28803;BMP280;15949;55.656;37.422;2023-07-24T11:33:22;98618.03;;;15.67
28803;BMP280;15949;55.656;37.422;2023-07-24T11:38:27;98621.88;;;15.48
28803;BMP280;15949;55.656;37.422;2023-07-24T11:43:33;98621.63;;;15.29
28803;BMP280;15949;55.656;37.422;2023-07-24T11:48:41;98613.03;;;15.21
28803;BMP280;15949;55.656;37.422;2023-07-24T11:53:46;98604.09;;;15.12
28803;BMP280;15949;55.656;37.422;2023-07-24T11:58:52;98593.19;;;15.10
28803;BMP280;15949;55.656;37.422;2023-07-24T12:03:58;98596.63;;;15.00
28803;BMP280;15949;55.656;37.422;2023-07-24T12:09:04;98591.38;;;15.00
28803;BMP280;15949;55.656;37.422;2023-07-24T12:14:10;98584.59;;;15.09
28803;BMP280;15949;55.656;37.422;2023-07-24T12:19:16;98573.66;;;15.21
28803;BMP280;15949;55.656;37.422;2023-07-24T12:24:21;98572.44;;;15.40
28803;BMP280;15949;55.656;37.422;2023-07-24T12:29:27;98566.34;;;15.50
28803;BMP280;15949;55.656;37.422;2023-07-24T12:34:33;98542.28;;;15.59
28803;BMP280;15949;55.656;37.422;2023-07-24T12:39:38;98533.09;;;15.81
28803;BMP280;15949;55.656;37.422;2023-07-24T12:44:44;98532.16;;;16.01
28803;BMP280;15949;55.656;37.422;2023-07-24T12:49:49;98534.38;;;16.03
28803;BMP280;15949;55.656;37.422;2023-07-24T12:54:57;98521.75;;;15.87
28803;BMP280;15949;55.656;37.422;2023-07-24T13:00:03;98524.88;;;15.75
28803;BMP280;15949;55.656;37.422;2023-07-24T13:05:10;98521.94;;;15.66
28803;BMP280;15949;55.656;37.422;2023-07-24T13:10:15;98526.53;;;15.55
28803;BMP280;15949;55.656;37.422;2023-07-24T13:15:21;98514.81;;;15.67
28803;BMP280;15949;55.656;37.422;2023-07-24T13:20:27;98507.50;;;15.85
28803;BMP280;15949;55.656;37.422;2023-07-24T13:25:32;98511.63;;;15.86
28803;BMP280;15949;55.656;37.422;2023-07-24T13:30:38;98501.03;;;15.93
28803;BMP280;15949;55.656;37.422;2023-07-24T13:35:43;98492.34;;;15.99
28803;BMP280;15949;55.656;37.422;2023-07-24T13:40:49;98495.72;;;16.34
28803;BMP280;15949;55.656;37.422;2023-07-24T13:45:55;98499.22;;;16.84
28803;BMP280;15949;55.656;37.422;2023-07-24T13:51:01;98493.63;;;17.74
28803;BMP280;15949;55.656;37.422;2023-07-24T13:56:06;98490.22;;;17.54
28803;BMP280;15949;55.656;37.422;2023-07-24T14:01:12;98487.97;;;17.53
28803;BMP280;15949;55.656;37.422;2023-07-24T14:06:18;98493.81;;;17.64
28803;BMP280;15949;55.656;37.422;2023-07-24T14:11:23;98479.09;;;17.66
28803;BMP280;15949;55.656;37.422;2023-07-24T14:16:30;98483.81;;;17.75
28803;BMP280;15949;55.656;37.422;2023-07-24T14:21:35;98477.53;;;17.89
28803;BMP280;15949;55.656;37.422;2023-07-24T14:26:41;98483.28;;;18.03
28803;BMP280;15949;55.656;37.422;2023-07-24T14:31:46;98468.69;;;17.99
28803;BMP280;15949;55.656;37.422;2023-07-24T14:36:52;98463.38;;;17.83
28803;BMP280;15949;55.656;37.422;2023-07-24T14:41:58;98469.81;;;17.98
28803;BMP280;15949;55.656;37.422;2023-07-24T14:47:04;98462.38;;;18.32
28803;BMP280;15949;55.656;37.422;2023-07-24T14:52:09;98452.16;;;18.50
28803;BMP280;15949;55.656;37.422;2023-07-24T14:57:15;98439.81;;;18.11
28803;BMP280;15949;55.656;37.422;2023-07-24T15:02:21;98445.34;;;17.97
28803;BMP280;15949;55.656;37.422;2023-07-24T15:07:26;98446.63;;;17.89
28803;BMP280;15949;55.656;37.422;2023-07-24T15:12:32;98444.53;;;17.81
28803;BMP280;15949;55.656;37.422;2023-07-24T15:17:38;98440.63;;;17.49
28803;BMP280;15949;55.656;37.422;2023-07-24T15:22:43;98434.97;;;17.47
28803;BMP280;15949;55.656;37.422;2023-07-24T15:27:49;98423.03;;;18.02
28803;BMP280;15949;55.656;37.422;2023-07-24T15:32:54;98432.25;;;17.94
28803;BMP280;15949;55.656;37.422;2023-07-24T15:38:00;98421.72;;;18.10
28803;BMP280;15949;55.656;37.422;2023-07-24T15:43:07;98415.09;;;18.21
28803;BMP280;15949;55.656;37.422;2023-07-24T15:48:12;98417.47;;;18.16
28803;BMP280;15949;55.656;37.422;2023-07-24T15:53:18;98413.09;;;18.45
28803;BMP280;15949;55.656;37.422;2023-07-24T15:58:23;98405.47;;;18.31
28803;BMP280;15949;55.656;37.422;2023-07-24T16:03:29;98411.69;;;18.05
28803;BMP280;15949;55.656;37.422;2023-07-24T16:08:36;98390.34;;;17.80
28803;BMP280;15949;55.656;37.422;2023-07-24T16:13:42;98403.44;;;17.83
28803;BMP280;15949;55.656;37.422;2023-07-24T16:24:18;98386.59;;;17.97
28803;BMP280;15949;55.656;37.422;2023-07-24T16:29:25;98399.09;;;17.93
28803;BMP280;15949;55.656;37.422;2023-07-24T16:34:30;98393.59;;;17.87
28803;BMP280;15949;55.656;37.422;2023-07-24T16:39:38;98395.75;;;17.72
28803;BMP280;15949;55.656;37.422;2023-07-24T16:44:44;98403.88;;;17.62
28803;BMP280;15949;55.656;37.422;2023-07-24T16:49:49;98406.28;;;17.53
28803;BMP280;15949;55.656;37.422;2023-07-24T16:54:55;98415.56;;;17.41
28803;BMP280;15949;55.656;37.422;2023-07-24T17:00:00;98405.56;;;17.29
28803;BMP280;15949;55.656;37.422;2023-07-24T17:05:06;98415.41;;;17.25
28803;BMP280;15949;55.656;37.422;2023-07-24T17:10:12;98417.91;;;17.13
28803;BMP280;15949;55.656;37.422;2023-07-24T17:15:18;98411.59;;;17.07
28803;BMP280;15949;55.656;37.422;2023-07-24T17:20:24;98418.16;;;16.98
28803;BMP280;15949;55.656;37.422;2023-07-24T17:25:29;98431.81;;;16.90
28803;BMP280;15949;55.656;37.422;2023-07-24T17:30:35;98433.91;;;16.75
28803;BMP280;15949;55.656;37.422;2023-07-24T17:35:41;98436.16;;;16.50
28803;BMP280;15949;55.656;37.422;2023-07-24T17:40:47;98434.09;;;16.35
28803;BMP280;15949;55.656;37.422;2023-07-24T17:45:53;98441.69;;;16.29
28803;BMP280;15949;55.656;37.422;2023-07-24T17:50:58;98441.81;;;16.18
28803;BMP280;15949;55.656;37.422;2023-07-24T17:56:05;98448.06;;;15.98
28803;BMP280;15949;55.656;37.422;2023-07-24T18:01:10;98447.06;;;15.85
28803;BMP280;15949;55.656;37.422;2023-07-24T18:06:16;98448.34;;;15.70
28803;BMP280;15949;55.656;37.422;2023-07-24T18:11:22;98454.88;;;15.54
28803;BMP280;15949;55.656;37.422;2023-07-24T18:16:27;98450.88;;;15.39
28803;BMP280;15949;55.656;37.422;2023-07-24T18:21:33;98442.75;;;15.27
28803;BMP280;15949;55.656;37.422;2023-07-24T18:26:38;98440.53;;;15.22
28803;BMP280;15949;55.656;37.422;2023-07-24T18:31:44;98443.88;;;15.19
28803;BMP280;15949;55.656;37.422;2023-07-24T18:36:51;98443.25;;;15.08
28803;BMP280;15949;55.656;37.422;2023-07-24T18:41:56;98442.25;;;14.91
28803;BMP280;15949;55.656;37.422;2023-07-24T18:47:02;98437.03;;;14.80
28803;BMP280;15949;55.656;37.422;2023-07-24T18:52:07;98449.13;;;14.67
28803;BMP280;15949;55.656;37.422;2023-07-24T18:57:13;98455.94;;;14.54
28803;BMP280;15949;55.656;37.422;2023-07-24T19:02:19;98460.81;;;14.52
28803;BMP280;15949;55.656;37.422;2023-07-24T19:07:25;98458.97;;;14.42
28803;BMP280;15949;55.656;37.422;2023-07-24T19:12:31;98458.97;;;14.35
28803;BMP280;15949;55.656;37.422;2023-07-24T19:17:37;98466.13;;;14.31
28803;BMP280;15949;55.656;37.422;2023-07-24T19:22:45;98463.88;;;14.30
28803;BMP280;15949;55.656;37.422;2023-07-24T19:27:51;98451.19;;;14.28
28803;BMP280;15949;55.656;37.422;2023-07-24T19:32:56;98459.03;;;14.28
28803;BMP280;15949;55.656;37.422;2023-07-24T19:38:02;98455.66;;;14.28
28803;BMP280;15949;55.656;37.422;2023-07-24T19:43:08;98458.28;;;14.21
28803;BMP280;15949;55.656;37.422;2023-07-24T19:48:13;98455.72;;;14.13
28803;BMP280;15949;55.656;37.422;2023-07-24T19:53:20;98441.47;;;14.11
28803;BMP280;15949;55.656;37.422;2023-07-24T19:58:26;98446.72;;;14.11
28803;BMP280;15949;55.656;37.422;2023-07-24T20:03:32;98441.09;;;14.12
28803;BMP280;15949;55.656;37.422;2023-07-24T20:08:37;98439.59;;;14.11
28803;BMP280;15949;55.656;37.422;2023-07-24T20:13:43;98439.97;;;14.10
28803;BMP280;15949;55.656;37.422;2023-07-24T20:18:48;98437.38;;;14.10
28803;BMP280;15949;55.656;37.422;2023-07-24T20:23:54;98430.28;;;14.03
28803;BMP280;15949;55.656;37.422;2023-07-24T20:29:00;98437.03;;;14.01
28803;BMP280;15949;55.656;37.422;2023-07-24T20:34:05;98426.91;;;13.99
28803;BMP280;15949;55.656;37.422;2023-07-24T20:39:11;98423.91;;;13.97
28803;BMP280;15949;55.656;37.422;2023-07-24T20:44:22;98423.94;;;13.94
28803;BMP280;15949;55.656;37.422;2023-07-24T20:49:27;98419.81;;;13.93
28803;BMP280;15949;55.656;37.422;2023-07-24T20:54:33;98413.47;;;13.90
28803;BMP280;15949;55.656;37.422;2023-07-24T20:59:39;98416.47;;;13.85
28803;BMP280;15949;55.656;37.422;2023-07-24T21:04:44;98422.47;;;13.82
28803;BMP280;15949;55.656;37.422;2023-07-24T21:09:50;98419.84;;;13.86
28803;BMP280;15949;55.656;37.422;2023-07-24T21:14:56;98419.09;;;13.82
28803;BMP280;15949;55.656;37.422;2023-07-24T21:20:04;98410.50;;;13.78
28803;BMP280;15949;55.656;37.422;2023-07-24T21:25:10;98405.25;;;13.71
28803;BMP280;15949;55.656;37.422;2023-07-24T21:30:16;98406.78;;;13.72
28803;BMP280;15949;55.656;37.422;2023-07-24T21:35:22;98409.75;;;13.63
28803;BMP280;15949;55.656;37.422;2023-07-24T21:40:27;98416.50;;;13.54
28803;BMP280;15949;55.656;37.422;2023-07-24T21:45:33;98418.75;;;13.48
28803;BMP280;15949;55.656;37.422;2023-07-24T21:50:39;98416.91;;;13.41
28803;BMP280;15949;55.656;37.422;2023-07-24T21:55:47;98421.75;;;13.39
28803;BMP280;15949;55.656;37.422;2023-07-24T22:00:53;98414.66;;;13.36
28803;BMP280;15949;55.656;37.422;2023-07-24T22:05:59;98408.66;;;13.43
28803;BMP280;15949;55.656;37.422;2023-07-24T22:11:12;98414.69;;;13.47
28803;BMP280;15949;55.656;37.422;2023-07-24T22:16:18;98404.56;;;13.45
28803;BMP280;15949;55.656;37.422;2023-07-24T22:21:23;98400.44;;;13.44
28803;BMP280;15949;55.656;37.422;2023-07-24T22:26:29;98393.34;;;13.45
28803;BMP280;15949;55.656;37.422;2023-07-24T22:31:35;98401.94;;;13.45
28803;BMP280;15949;55.656;37.422;2023-07-24T22:36:40;98394.84;;;13.46
28803;BMP280;15949;55.656;37.422;2023-07-24T22:41:46;98394.84;;;13.46
28803;BMP280;15949;55.656;37.422;2023-07-24T22:46:52;98394.06;;;13.53
28803;BMP280;15949;55.656;37.422;2023-07-24T22:51:57;98384.34;;;13.60
28803;BMP280;15949;55.656;37.422;2023-07-24T22:57:03;98380.59;;;13.68
28803;BMP280;15949;55.656;37.422;2023-07-24T23:02:09;98378.34;;;13.70
28803;BMP280;15949;55.656;37.422;2023-07-24T23:07:14;98385.78;;;13.75
28803;BMP280;15949;55.656;37.422;2023-07-24T23:12:20;98382.84;;;13.70
28803;BMP280;15949;55.656;37.422;2023-07-24T23:17:25;98372.75;;;13.61
28803;BMP280;15949;55.656;37.422;2023-07-24T23:22:31;98373.88;;;13.53
28803;BMP280;15949;55.656;37.422;2023-07-24T23:27:36;98372.38;;;13.48
28803;BMP280;15949;55.656;37.422;2023-07-24T23:32:42;98374.63;;;13.50
28803;BMP280;15949;55.656;37.422;2023-07-24T23:37:47;98375.41;;;13.47
28803;BMP280;15949;55.656;37.422;2023-07-24T23:42:53;98374.28;;;13.37
28803;BMP280;15949;55.656;37.422;2023-07-24T23:47:59;98367.94;;;13.38
28803;BMP280;15949;55.656;37.422;2023-07-24T23:53:04;98376.91;;;13.41
28803;BMP280;15949;55.656;37.422;2023-07-24T23:58:10;98362.69;;;13.45
